createdAt,value
2018-02-04T00:01:19.126Z,1.90
2018-02-04T00:03:46.008Z,2.00
2018-02-04T00:06:12.890Z,2.00
2018-02-04T00:08:39.755Z,1.90
2018-02-04T00:11:06.614Z,1.80
2018-02-04T00:13:33.503Z,1.60
2018-02-04T00:16:00.351Z,1.60
2018-02-04T00:18:27.205Z,1.70
2018-02-04T00:20:54.077Z,1.80
2018-02-04T00:23:20.922Z,1.90
2018-02-04T00:25:47.814Z,2.10
2018-02-04T00:28:15.437Z,1.90
2018-02-04T00:30:42.295Z,1.90
2018-02-04T00:33:09.882Z,1.70
2018-02-04T00:35:36.741Z,1.70
2018-02-04T00:38:04.650Z,1.80
2018-02-04T00:40:31.554Z,1.80
2018-02-04T00:42:58.542Z,1.70
2018-02-04T00:45:25.409Z,1.60
2018-02-04T00:47:52.275Z,1.60
2018-02-04T00:50:19.186Z,1.70
2018-02-04T00:52:46.053Z,1.90
2018-02-04T00:55:13.657Z,1.90
2018-02-04T00:57:40.501Z,1.90
2018-02-04T01:00:07.735Z,1.80
2018-02-04T01:02:34.630Z,2.00
2018-02-04T01:05:01.505Z,2.10
2018-02-04T01:07:28.426Z,2.10
2018-02-04T01:09:55.262Z,2.10
2018-02-04T01:12:22.134Z,1.90
2018-02-04T01:14:49.080Z,2.00
2018-02-04T01:17:15.977Z,2.10
2018-02-04T01:19:42.973Z,2.10
2018-02-04T01:22:09.886Z,2.10
2018-02-04T01:24:36.758Z,2.00
2018-02-04T01:27:04.325Z,2.10
2018-02-04T01:29:31.183Z,2.10
2018-02-04T01:31:58.397Z,2.20
2018-02-04T01:34:25.369Z,2.30
2018-02-04T01:36:52.237Z,2.30
2018-02-04T01:39:19.101Z,2.30
2018-02-04T01:41:45.973Z,2.20
2018-02-04T01:44:13.597Z,2.30
2018-02-04T01:46:40.478Z,2.20
2018-02-04T01:49:07.341Z,2.20
2018-02-04T01:51:34.220Z,2.10
2018-02-04T01:54:02.019Z,2.00
2018-02-04T01:56:28.958Z,1.90
2018-02-04T01:58:55.831Z,2.20
2018-02-04T02:01:23.910Z,1.90
2018-02-04T02:03:50.750Z,1.90
2018-02-04T02:06:17.637Z,2.00
2018-02-04T02:08:44.546Z,2.00
2018-02-04T02:11:11.435Z,2.10
2018-02-04T02:13:38.318Z,2.20
2018-02-04T02:16:05.886Z,2.20
2018-02-04T02:18:32.769Z,2.20
2018-02-04T02:20:59.622Z,2.20
2018-02-04T02:23:26.478Z,2.00
2018-02-04T02:25:53.339Z,1.80
2018-02-04T02:28:20.944Z,2.00
2018-02-04T02:30:47.809Z,2.00
2018-02-04T02:33:14.647Z,2.10
2018-02-04T02:35:41.517Z,2.00
2018-02-04T02:38:08.369Z,2.20
2018-02-04T02:40:36.002Z,2.10
2018-02-04T02:43:02.865Z,2.10
2018-02-04T02:45:30.494Z,2.20
2018-02-04T02:47:57.401Z,2.20
2018-02-04T02:50:24.956Z,2.30
2018-02-04T02:52:52.570Z,2.30
2018-02-04T02:55:19.446Z,2.20
2018-02-04T02:57:47.058Z,2.20
2018-02-04T03:00:13.939Z,2.20
2018-02-04T03:02:41.598Z,2.30
2018-02-04T03:05:08.865Z,2.30
2018-02-04T03:07:35.822Z,2.10
2018-02-04T03:10:02.747Z,2.00
2018-02-04T03:12:30.392Z,2.10
2018-02-04T03:14:57.333Z,2.10
2018-02-04T03:17:24.163Z,2.10
2018-02-04T03:19:51.062Z,2.10
2018-02-04T03:22:18.642Z,2.10
2018-02-04T03:24:45.517Z,2.10
2018-02-04T03:27:12.509Z,2.10
2018-02-04T03:29:39.347Z,2.20
2018-02-04T03:32:06.230Z,2.10
2018-02-04T03:34:33.391Z,2.20
2018-02-04T03:37:00.245Z,2.00
2018-02-04T03:39:27.078Z,2.00
2018-02-04T03:41:53.958Z,2.10
2018-02-04T03:44:21.558Z,2.10
2018-02-04T03:46:48.566Z,2.10
2018-02-04T03:49:16.197Z,2.20
2018-02-04T03:51:43.053Z,2.20
2018-02-04T03:54:10.070Z,2.20
2018-02-04T03:56:36.902Z,2.20
2018-02-04T03:59:03.770Z,2.20
2018-02-04T04:01:30.678Z,2.10
2018-02-04T04:03:57.593Z,2.10
2018-02-04T04:06:25.218Z,2.00
2018-02-04T04:08:52.082Z,2.00
2018-02-04T04:11:18.954Z,1.80
2018-02-04T04:13:45.818Z,1.80
2018-02-04T04:16:12.686Z,1.80
2018-02-04T04:18:39.527Z,1.50
2018-02-04T04:21:07.158Z,1.30
2018-02-04T04:23:34.765Z,1.30
2018-02-04T04:26:01.613Z,1.30
2018-02-04T04:28:28.482Z,1.30
2018-02-04T04:30:55.338Z,1.30
2018-02-04T04:33:29.217Z,0.90
2018-02-04T04:35:56.050Z,0.80
2018-02-04T04:38:22.921Z,0.70
2018-02-04T04:40:49.778Z,0.80
2018-02-04T04:43:17.392Z,1.00
2018-02-04T04:45:44.238Z,1.00
2018-02-04T04:48:11.125Z,1.00
2018-02-04T04:50:38.026Z,1.10
2018-02-04T04:53:05.660Z,1.00
2018-02-04T04:55:32.569Z,1.00
2018-02-04T04:57:59.468Z,1.00
2018-02-04T05:00:26.330Z,1.00
2018-02-04T05:02:53.214Z,1.00
2018-02-04T05:05:20.087Z,0.90
2018-02-04T05:07:46.950Z,1.00
2018-02-04T05:10:13.782Z,0.90
2018-02-04T05:12:40.647Z,0.90
2018-02-04T05:15:07.485Z,0.80
2018-02-04T05:17:34.354Z,0.70
2018-02-04T05:20:01.957Z,0.60
2018-02-04T05:22:28.897Z,0.60
2018-02-04T05:24:55.738Z,0.60
2018-02-04T05:27:22.585Z,0.60
2018-02-04T05:29:50.329Z,0.60
2018-02-04T05:32:17.938Z,0.60
2018-02-04T05:34:44.802Z,0.60
2018-02-04T05:37:11.746Z,0.60
2018-02-04T05:39:38.631Z,0.50
2018-02-04T05:42:06.207Z,0.20
2018-02-04T05:44:33.078Z,0.20
2018-02-04T05:46:59.995Z,0.20
2018-02-04T05:49:27.001Z,0.20
2018-02-04T05:51:53.848Z,0.30
2018-02-04T05:54:20.750Z,0.40
2018-02-04T05:56:47.654Z,0.40
2018-02-04T05:59:15.254Z,0.40
2018-02-04T06:01:42.326Z,0.40
2018-02-04T06:04:09.253Z,0.40
2018-02-04T06:06:36.253Z,0.30
2018-02-04T06:09:03.898Z,0.30
2018-02-04T06:11:30.751Z,0.30
2018-02-04T06:13:58.404Z,0.30
2018-02-04T06:16:26.006Z,0.20
2018-02-04T06:18:53.597Z,0.00
2018-02-04T06:21:20.455Z,0.00
2018-02-04T06:23:48.174Z,0.10
2018-02-04T06:26:15.235Z,0.10
2018-02-04T06:28:42.260Z,0.10
2018-02-04T06:31:09.158Z,0.10
2018-02-04T06:33:36.054Z,0.10
2018-02-04T06:36:03.638Z,0.00
2018-02-04T06:38:30.502Z,0.00
2018-02-04T06:40:57.409Z,0.00
2018-02-04T06:43:24.241Z,0.10
2018-02-04T06:45:51.106Z,0.00
2018-02-04T06:48:17.938Z,0.00
2018-02-04T06:50:44.790Z,0.00
2018-02-04T06:53:11.831Z,0.00
2018-02-04T06:55:38.698Z,0.00
2018-02-04T06:58:05.550Z,0.00
2018-02-04T07:00:32.429Z,-0.10
2018-02-04T07:03:00.046Z,0.00
2018-02-04T07:05:26.898Z,0.00
2018-02-04T07:07:53.802Z,0.00
2018-02-04T07:10:20.709Z,0.10
2018-02-04T07:12:48.326Z,0.00
2018-02-04T07:15:15.174Z,-0.10
2018-02-04T07:17:42.026Z,-0.30
2018-02-04T07:20:08.908Z,-0.40
2018-02-04T07:22:36.749Z,0.10
2018-02-04T07:25:03.629Z,0.10
2018-02-04T07:27:31.258Z,0.30
2018-02-04T07:29:58.182Z,0.30
2018-02-04T07:32:25.190Z,0.30
2018-02-04T07:34:52.813Z,0.10
2018-02-04T07:37:19.674Z,0.10
2018-02-04T07:39:47.371Z,0.10
2018-02-04T07:42:14.234Z,0.10
2018-02-04T07:44:41.151Z,0.30
2018-02-04T07:47:08.158Z,0.40
2018-02-04T07:49:35.169Z,0.50
2018-02-04T07:52:02.228Z,0.20
2018-02-04T07:54:30.071Z,0.00
2018-02-04T07:56:56.994Z,0.20
2018-02-04T07:59:24.997Z,0.30
2018-02-04T08:01:51.979Z,0.50
2018-02-04T08:04:18.798Z,0.40
2018-02-04T08:06:45.867Z,0.40
2018-02-04T08:09:12.845Z,0.50
2018-02-04T08:11:39.773Z,0.70
2018-02-04T08:14:06.739Z,0.60
2018-02-04T08:16:34.414Z,0.90
2018-02-04T08:19:01.373Z,0.90
2018-02-04T08:21:28.426Z,1.00
2018-02-04T08:23:55.416Z,1.00
2018-02-04T08:26:22.301Z,1.10
2018-02-04T08:28:49.277Z,1.30
2018-02-04T08:31:16.278Z,1.00
2018-02-04T08:33:43.396Z,1.10
2018-02-04T08:36:10.283Z,1.20
2018-02-04T08:38:37.485Z,1.30
2018-02-04T08:41:04.799Z,1.40
2018-02-04T08:43:32.535Z,1.40
2018-02-04T08:45:59.450Z,1.40
2018-02-04T08:48:26.281Z,1.40
2018-02-04T08:50:53.131Z,1.40
2018-02-04T08:53:20.871Z,1.60
2018-02-04T08:55:47.818Z,1.60
2018-02-04T08:58:14.719Z,1.70
2018-02-04T09:00:41.602Z,1.80
2018-02-04T09:03:08.478Z,1.60
2018-02-04T09:05:36.078Z,1.60
2018-02-04T09:08:02.965Z,1.60
2018-02-04T09:10:29.874Z,1.70
2018-02-04T09:12:56.818Z,1.80
2018-02-04T09:15:23.687Z,1.70
2018-02-04T09:17:50.556Z,1.60
2018-02-04T09:20:18.174Z,1.60
2018-02-04T09:22:45.780Z,1.60
2018-02-04T09:25:12.612Z,1.60
2018-02-04T09:27:39.492Z,1.60
2018-02-04T09:30:06.591Z,1.80
2018-02-04T09:32:33.533Z,2.00
2018-02-04T09:35:00.446Z,2.00
2018-02-04T09:37:27.346Z,2.30
2018-02-04T09:39:54.257Z,2.20
2018-02-04T09:42:21.142Z,2.20
2018-02-04T09:44:48.758Z,2.60
2018-02-04T09:47:15.633Z,2.50
2018-02-04T09:49:42.482Z,2.70
2018-02-04T09:52:10.243Z,2.80
2018-02-04T09:54:38.173Z,2.80
2018-02-04T09:57:05.057Z,2.80
2018-02-04T09:59:32.636Z,3.10
2018-02-04T10:01:59.522Z,3.10
2018-02-04T10:04:26.418Z,3.10
2018-02-04T10:06:54.053Z,3.20
2018-02-04T10:09:21.945Z,3.30
2018-02-04T10:11:48.772Z,3.30
2018-02-04T10:14:16.353Z,3.60
2018-02-04T10:16:43.354Z,3.60
2018-02-04T10:19:10.393Z,3.90
2018-02-04T10:21:37.327Z,4.00
2018-02-04T10:24:04.517Z,4.10
2018-02-04T10:26:32.268Z,4.30
2018-02-04T10:28:59.154Z,4.30
2018-02-04T10:31:26.070Z,4.70
2018-02-04T10:33:53.022Z,4.70
2018-02-04T10:36:21.685Z,5.00
2018-02-04T10:38:48.537Z,5.00
2018-02-04T10:41:15.588Z,5.30
2018-02-04T10:43:42.735Z,5.40
2018-02-04T10:46:10.397Z,6.60
2018-02-04T10:48:37.215Z,6.60
2018-02-04T10:51:10.125Z,7.90
2018-02-04T10:53:37.710Z,10.30
2018-02-04T10:56:05.310Z,11.00
2018-02-04T10:58:32.178Z,10.90
2018-02-04T11:00:59.116Z,12.10
2018-02-04T11:03:25.927Z,12.30
2018-02-04T11:05:52.804Z,13.10
2018-02-04T11:08:19.658Z,12.70
2018-02-04T11:10:46.546Z,11.40
2018-02-04T11:13:13.401Z,11.00
2018-02-04T11:15:40.283Z,11.70
2018-02-04T11:18:07.193Z,12.50
2018-02-04T11:20:34.089Z,12.30
2018-02-04T11:23:00.913Z,13.40
2018-02-04T11:25:27.790Z,13.90
2018-02-04T11:27:55.570Z,15.50
2018-02-04T11:30:22.458Z,15.40
2018-02-04T11:32:49.632Z,15.30
2018-02-04T11:35:16.519Z,15.40
2018-02-04T11:37:43.357Z,16.40
2018-02-04T11:40:10.243Z,16.60
2018-02-04T11:42:37.808Z,14.90
2018-02-04T11:45:04.656Z,14.80
2018-02-04T11:47:31.548Z,15.10
2018-02-04T11:49:58.382Z,15.80
2018-02-04T11:52:25.229Z,15.80
2018-02-04T11:54:52.137Z,16.40
2018-02-04T11:57:19.009Z,17.00
2018-02-04T11:59:46.597Z,17.50
2018-02-04T12:02:13.503Z,17.50
2018-02-04T12:04:40.481Z,17.70
2018-02-04T12:07:07.385Z,17.80
2018-02-04T12:09:34.973Z,19.90
2018-02-04T12:12:02.526Z,20.80
2018-02-04T12:14:29.358Z,20.80
2018-02-04T12:16:56.199Z,21.20
2018-02-04T12:19:23.031Z,20.00
2018-02-04T12:21:50.811Z,18.40
2018-02-04T12:24:18.398Z,18.60
2018-02-04T12:26:45.250Z,18.60
2018-02-04T12:29:12.264Z,19.80
2018-02-04T12:31:40.256Z,19.50
2018-02-04T12:34:07.243Z,18.80
2018-02-04T12:36:34.223Z,19.30
2018-02-04T12:39:01.148Z,19.00
2018-02-04T12:41:28.727Z,17.20
2018-02-04T12:43:56.317Z,16.40
2018-02-04T12:46:23.262Z,16.40
2018-02-04T12:48:50.131Z,15.20
2018-02-04T12:51:17.042Z,14.50
2018-02-04T12:53:44.663Z,13.00
2018-02-04T12:56:12.379Z,11.50
2018-02-04T12:58:39.250Z,11.50
2018-02-04T13:01:06.104Z,10.30
2018-02-04T13:03:32.934Z,10.00
2018-02-04T13:05:59.795Z,9.90
2018-02-04T13:08:27.454Z,9.50
2018-02-04T13:10:55.073Z,9.00
2018-02-04T13:13:21.925Z,9.00
2018-02-04T13:15:49.781Z,8.40
2018-02-04T13:18:16.653Z,8.50
2018-02-04T13:20:43.518Z,8.50
2018-02-04T13:23:11.098Z,8.40
2018-02-04T13:25:37.998Z,8.30
2018-02-04T13:28:04.855Z,8.10
2018-02-04T13:30:32.463Z,7.90
2018-02-04T13:32:59.349Z,7.80
2018-02-04T13:35:26.177Z,7.30
2018-02-04T13:37:53.023Z,7.40
2018-02-04T13:40:19.882Z,7.70
2018-02-04T13:42:46.731Z,7.80
2018-02-04T13:45:13.608Z,7.50
2018-02-04T13:47:40.466Z,7.20
2018-02-04T13:50:07.334Z,7.30
2018-02-04T13:52:34.254Z,7.40
2018-02-04T13:55:01.158Z,7.60
2018-02-04T13:57:28.771Z,8.50
2018-02-04T13:59:55.646Z,8.50
2018-02-04T14:02:22.503Z,8.50
2018-02-04T14:04:50.130Z,7.90
2018-02-04T14:07:16.978Z,7.90
2018-02-04T14:09:43.863Z,7.80
2018-02-04T14:12:10.742Z,7.60
2018-02-04T14:14:37.606Z,7.60
2018-02-04T14:17:04.458Z,7.60
2018-02-04T14:19:31.343Z,7.40
2018-02-04T14:21:58.203Z,7.40
2018-02-04T14:24:25.082Z,7.30
2018-02-04T14:26:52.026Z,7.20
2018-02-04T14:29:18.890Z,7.20
2018-02-04T14:31:45.770Z,7.00
2018-02-04T14:34:12.670Z,6.80
2018-02-04T14:36:39.597Z,6.80
2018-02-04T14:39:06.502Z,6.80
2018-02-04T14:41:33.417Z,6.70
2018-02-04T14:44:01.039Z,6.50
2018-02-04T14:46:27.906Z,6.50
2018-02-04T14:48:54.752Z,6.50
2018-02-04T14:51:21.610Z,6.40
2018-02-04T14:53:49.186Z,6.20
2018-02-04T14:56:16.808Z,6.20
2018-02-04T14:58:43.653Z,6.20
2018-02-04T15:01:10.508Z,6.00
2018-02-04T15:03:37.365Z,5.90
2018-02-04T15:06:05.001Z,5.60
2018-02-04T15:08:31.877Z,5.50
2018-02-04T15:10:59.485Z,5.60
2018-02-04T15:13:26.487Z,5.50
2018-02-04T15:15:53.371Z,5.50
2018-02-04T15:18:20.243Z,5.10
2018-02-04T15:20:47.109Z,5.10
2018-02-04T15:23:14.710Z,5.00
2018-02-04T15:25:41.545Z,5.00
2018-02-04T15:28:08.411Z,5.00
2018-02-04T15:30:35.277Z,4.90
2018-02-04T15:33:02.090Z,4.90
2018-02-04T15:35:28.957Z,4.90
2018-02-04T15:37:56.885Z,4.80
2018-02-04T15:40:23.743Z,4.80
2018-02-04T15:42:50.586Z,4.70
2018-02-04T15:45:17.461Z,4.70
2018-02-04T15:47:44.280Z,4.60
2018-02-04T15:50:11.166Z,4.50
2018-02-04T15:52:38.805Z,4.40
2018-02-04T15:55:05.652Z,4.40
2018-02-04T15:57:32.518Z,4.40
2018-02-04T15:59:59.353Z,4.30
2018-02-04T16:02:26.294Z,4.20
2018-02-04T16:04:53.921Z,4.10
2018-02-04T16:07:20.774Z,4.10
2018-02-04T16:09:47.800Z,4.00
2018-02-04T16:12:14.736Z,3.90
2018-02-04T16:14:41.613Z,3.90
2018-02-04T16:17:08.606Z,3.80
2018-02-04T16:19:35.551Z,3.80
2018-02-04T16:22:02.564Z,3.80
2018-02-04T16:24:29.398Z,3.70
2018-02-04T16:26:56.346Z,3.70
2018-02-04T16:29:23.434Z,3.50
2018-02-04T16:31:50.269Z,3.40
2018-02-04T16:34:18.134Z,3.40
2018-02-04T16:36:44.971Z,3.30
2018-02-04T16:39:12.567Z,3.10
2018-02-04T16:41:39.510Z,3.10
2018-02-04T16:44:06.413Z,3.10
2018-02-04T16:46:33.269Z,3.00
2018-02-04T16:49:00.131Z,3.00
2018-02-04T16:51:26.994Z,2.90
2018-02-04T16:53:53.942Z,2.90
2018-02-04T16:56:20.841Z,2.80
2018-02-04T16:58:47.718Z,2.70
2018-02-04T17:01:14.561Z,2.50
2018-02-04T17:03:41.521Z,2.60
2018-02-04T17:06:08.494Z,2.60
2018-02-04T17:08:35.534Z,2.60
2018-02-04T17:11:03.187Z,2.50
2018-02-04T17:13:30.046Z,2.50
2018-02-04T17:15:56.897Z,2.50
2018-02-04T17:18:24.503Z,2.40
2018-02-04T17:20:51.351Z,2.40
2018-02-04T17:23:18.222Z,2.40
2018-02-04T17:25:45.103Z,2.40
2018-02-04T17:28:12.017Z,2.40
2018-02-04T17:30:38.869Z,2.30
2018-02-04T17:33:05.973Z,2.40
2018-02-04T17:35:32.861Z,2.30
2018-02-04T17:37:59.820Z,2.20
2018-02-04T17:40:27.382Z,2.10
2018-02-04T17:42:54.998Z,2.00
2018-02-04T17:45:21.854Z,2.00
2018-02-04T17:47:48.750Z,2.00
2018-02-04T17:50:15.626Z,2.10
2018-02-04T17:52:42.558Z,2.10
2018-02-04T17:55:09.435Z,2.10
2018-02-04T17:57:36.262Z,2.10
2018-02-04T18:00:03.166Z,2.10
2018-02-04T18:02:30.024Z,1.90
2018-02-04T18:04:56.943Z,1.80
2018-02-04T18:07:23.841Z,1.80
2018-02-04T18:09:50.703Z,1.80
2018-02-04T18:12:18.341Z,1.90
2018-02-04T18:14:52.102Z,1.90
2018-02-04T18:17:18.956Z,1.90
2018-02-04T18:19:45.822Z,1.90
2018-02-04T18:22:12.783Z,1.90
2018-02-04T18:24:40.590Z,1.70
2018-02-04T18:27:07.430Z,1.70
2018-02-04T18:29:34.423Z,1.80
2018-02-04T18:32:01.422Z,1.80
2018-02-04T18:34:28.329Z,1.90
2018-02-04T18:36:55.191Z,1.90
2018-02-04T18:39:22.013Z,1.80
2018-02-04T18:41:48.886Z,1.70
2018-02-04T18:44:16.493Z,1.60
2018-02-04T18:46:43.418Z,1.60
2018-02-04T18:49:10.262Z,1.70
2018-02-04T18:51:37.163Z,1.70
2018-02-04T18:54:04.845Z,1.60
2018-02-04T18:56:31.722Z,1.60
2018-02-04T18:58:58.585Z,1.50
2018-02-04T19:01:25.493Z,1.50
2018-02-04T19:03:52.337Z,1.50
2018-02-04T19:06:19.174Z,1.50
2018-02-04T19:08:46.786Z,1.40
2018-02-04T19:11:14.387Z,1.40
2018-02-04T19:13:41.350Z,1.40
2018-02-04T19:16:08.190Z,1.40
2018-02-04T19:18:35.026Z,1.30
2018-02-04T19:21:01.963Z,1.30
2018-02-04T19:23:29.777Z,1.30
2018-02-04T19:25:56.775Z,1.30
2018-02-04T19:28:23.657Z,1.30
2018-02-04T19:30:50.529Z,1.30
2018-02-04T19:33:17.394Z,1.30
2018-02-04T19:35:45.048Z,1.30
2018-02-04T19:38:13.219Z,1.40
2018-02-04T19:40:40.877Z,1.40
2018-02-04T19:43:07.950Z,1.40
2018-02-04T19:45:34.822Z,1.40
2018-02-04T19:48:01.734Z,1.40
2018-02-04T19:50:28.666Z,1.30
2018-02-04T19:52:55.633Z,1.30
2018-02-04T19:55:22.514Z,1.30
2018-02-04T19:57:49.362Z,1.30
2018-02-04T20:00:17.242Z,1.20
2018-02-04T20:02:44.231Z,1.10
2018-02-04T20:05:11.202Z,1.00
2018-02-04T20:07:38.076Z,1.00
2018-02-04T20:10:04.948Z,1.00
2018-02-04T20:12:32.627Z,0.90
2018-02-04T20:14:59.537Z,0.90
2018-02-04T20:17:26.438Z,0.90
2018-02-04T20:19:53.339Z,0.90
2018-02-04T20:22:21.841Z,0.80
2018-02-04T20:24:49.146Z,0.80
2018-02-04T20:27:15.994Z,0.80
2018-02-04T20:29:43.233Z,0.80
2018-02-04T20:32:22.442Z,0.90
2018-02-04T20:34:50.358Z,0.90
2018-02-04T20:37:18.318Z,0.90
2018-02-04T20:39:46.302Z,0.90
2018-02-04T20:42:13.403Z,0.80
2018-02-04T20:44:40.303Z,0.80
2018-02-04T20:47:08.539Z,0.80
2018-02-04T20:49:35.379Z,0.80
2018-02-04T20:52:02.246Z,0.80
2018-02-04T20:54:30.234Z,0.70
2018-02-04T20:56:57.822Z,0.70
2018-02-04T20:59:24.679Z,0.60
2018-02-04T21:01:51.645Z,0.60
2018-02-04T21:04:19.303Z,0.20
2018-02-04T21:06:46.195Z,0.10
2018-02-04T21:09:13.766Z,0.30
2018-02-04T21:11:41.434Z,0.30
2018-02-04T21:14:08.546Z,0.30
2018-02-04T21:16:35.710Z,0.50
2018-02-04T21:19:02.806Z,0.50
2018-02-04T21:21:30.519Z,0.50
2018-02-04T21:23:57.561Z,0.50
2018-02-04T21:26:24.510Z,0.60
2018-02-04T21:28:51.416Z,0.50
2018-02-04T21:31:18.445Z,0.40
2018-02-04T21:33:45.287Z,0.50
2018-02-04T21:36:12.177Z,0.50
2018-02-04T21:38:39.049Z,0.50
2018-02-04T21:41:06.704Z,0.30
2018-02-04T21:43:34.282Z,0.30
2018-02-04T21:46:01.833Z,0.30
2018-02-04T21:48:28.733Z,0.30
2018-02-04T21:50:55.593Z,0.30
2018-02-04T21:53:22.435Z,0.30
2018-02-04T21:55:49.310Z,0.30
2018-02-04T21:58:16.121Z,0.30
2018-02-04T22:00:44.921Z,0.20
2018-02-04T22:03:11.758Z,0.30
2018-02-04T22:05:38.618Z,0.30
2018-02-04T22:08:05.489Z,0.40
2018-02-04T22:10:32.338Z,0.30
2018-02-04T22:13:00.271Z,0.30
2018-02-04T22:15:27.071Z,0.20
2018-02-04T22:17:53.920Z,0.20
2018-02-04T22:20:20.782Z,0.10
2018-02-04T22:22:48.648Z,0.30
2018-02-04T22:25:15.497Z,0.30
2018-02-04T22:27:42.328Z,0.30
2018-02-04T22:30:09.161Z,0.30
2018-02-04T22:32:36.133Z,0.40
2018-02-04T22:35:03.046Z,0.30
2018-02-04T22:37:30.074Z,0.30
2018-02-04T22:39:56.898Z,0.30
2018-02-04T22:42:27.674Z,0.20
2018-02-04T22:44:54.542Z,0.20
2018-02-04T22:47:22.118Z,0.20
2018-02-04T22:49:48.958Z,0.10
2018-02-04T22:52:15.915Z,0.20
2018-02-04T22:54:42.821Z,0.30
2018-02-04T22:57:09.861Z,0.30
2018-02-04T22:59:36.750Z,0.30
2018-02-04T23:02:04.666Z,0.30
2018-02-04T23:04:31.509Z,0.30
2018-02-04T23:07:04.195Z,0.20
2018-02-04T23:09:33.933Z,0.10
2018-02-04T23:12:01.598Z,0.20
2018-02-04T23:14:29.189Z,0.20
2018-02-04T23:16:56.049Z,0.10
2018-02-04T23:19:22.902Z,0.30
2018-02-04T23:21:49.933Z,0.30
2018-02-04T23:24:16.781Z,0.40
2018-02-04T23:26:44.392Z,0.60
2018-02-04T23:29:11.957Z,0.70
2018-02-04T23:31:38.878Z,0.70
2018-02-04T23:34:05.686Z,0.70
2018-02-04T23:36:32.522Z,0.70
2018-02-04T23:38:59.370Z,0.70
2018-02-04T23:41:26.249Z,0.90
2018-02-04T23:43:53.066Z,0.90
2018-02-04T23:46:19.956Z,1.10
2018-02-04T23:48:47.546Z,1.10
2018-02-04T23:51:14.448Z,1.10
2018-02-04T23:53:42.049Z,1.10
2018-02-04T23:56:08.862Z,1.10
2018-02-04T23:58:35.721Z,1.20
